Time;durP1;ratioP1;P1;durP2;ratioP2;P2;SDS_P1;SDS_P2;PMS_P1;PMS_P2;Temp;Humidity;BMP_temperature;BMP_pressure;BME280_temperature;BME280_humidity;BME280_pressure;Samples;Min_cycle;Max_cycle;Signal;HPM_P1;HPM_P2
2022/09/27 00:00:43;;;;;;;0.60;0.50;;;11.90;99.90;;;;;;5112263;28;20816;-73
2022/09/27 00:03:10;;;;;;;1.23;0.60;;;12.00;99.90;;;;;;5111914;28;20377;-72
2022/09/27 00:05:35;;;;;;;0.90;0.50;;;11.90;99.90;;;;;;5112035;28;20453;-73
2022/09/27 00:08:01;;;;;;;1.40;0.60;;;12.00;99.90;;;;;;5111959;28;20407;-72
2022/09/27 00:10:27;;;;;;;1.00;0.60;;;11.90;99.90;;;;;;5111882;28;20396;-73
2022/09/27 00:12:53;;;;;;;0.90;0.70;;;11.90;99.90;;;;;;5111699;28;20381;-72
2022/09/27 00:15:19;;;;;;;1.40;0.70;;;11.90;99.90;;;;;;5111736;28;20511;-72
2022/09/27 00:17:46;;;;;;;1.80;0.80;;;11.90;99.90;;;;;;5110565;28;20435;-72
2022/09/27 00:20:11;;;;;;;0.80;0.70;;;11.80;99.90;;;;;;5093261;28;20786;-74
2022/09/27 00:22:37;;;;;;;1.45;0.68;;;11.80;99.90;;;;;;5111473;28;20396;-72
2022/09/27 00:25:06;;;;;;;1.10;0.60;;;11.60;99.90;;;;;;5111705;28;20426;-73
2022/09/27 00:27:32;;;;;;;1.30;0.90;;;11.40;99.90;;;;;;5093227;28;20441;-73
2022/09/27 00:29:57;;;;;;;0.80;0.80;;;11.30;99.90;;;;;;5111506;28;20387;-74
2022/09/27 00:32:23;;;;;;;0.70;0.70;;;11.20;99.90;;;;;;5111210;28;20400;-75
2022/09/27 00:34:48;;;;;;;0.77;0.70;;;11.20;99.90;;;;;;5092589;28;20380;-75
2022/09/27 00:37:14;;;;;;;1.20;0.53;;;11.20;99.90;;;;;;5111457;28;20391;-74
2022/09/27 00:39:39;;;;;;;0.70;0.60;;;11.30;99.90;;;;;;5111188;28;20398;-75
2022/09/27 00:42:08;;;;;;;0.60;0.60;;;11.30;99.90;;;;;;5111469;28;20415;-73
2022/09/27 00:44:54;;;;;;;0.80;0.60;;;11.30;99.90;;;;;;5110985;28;20387;-74
2022/09/27 00:47:36;;;;;;;0.95;0.65;;;11.30;99.90;;;;;;5093421;28;20389;-74
2022/09/27 00:50:05;;;;;;;1.30;0.70;;;11.40;99.90;;;;;;5111339;28;20861;-73
2022/09/27 00:52:43;;;;;;;1.40;0.65;;;11.40;99.90;;;;;;5110898;28;20412;-74
2022/09/27 00:55:16;;;;;;;1.20;0.73;;;11.50;99.90;;;;;;5092524;28;20475;-73
2022/09/27 00:57:44;;;;;;;1.13;0.60;;;11.50;99.90;;;;;;5101677;28;20913;-74
2022/09/27 01:00:12;;;;;;;0.82;0.70;;;11.40;99.90;;;;;;5111123;28;20388;-73
2022/09/27 01:02:41;;;;;;;0.90;0.70;;;11.30;99.90;;;;;;5110660;28;20388;-73
2022/09/27 01:05:09;;;;;;;0.70;0.60;;;11.30;99.90;;;;;;5092791;28;21115;-74
2022/09/27 01:07:34;;;;;;;1.00;0.80;;;11.30;99.90;;;;;;5110666;28;20388;-76
2022/09/27 01:10:00;;;;;;;1.35;1.00;;;11.20;99.90;;;;;;5092556;28;20392;-77
2022/09/27 01:12:52;;;;;;;0.80;0.80;;;11.00;99.90;;;;;;5110873;28;20401;-75
2022/09/27 01:15:48;;;;;;;1.47;0.80;;;10.90;99.90;;;;;;5110812;28;20869;-74
2022/09/27 01:18:29;;;;;;;1.00;0.90;;;10.90;99.90;;;;;;5110696;28;20386;-74
2022/09/27 01:21:34;;;;;;;1.57;1.00;;;10.80;99.90;;;;;;5110631;28;20463;-74
2022/09/27 01:24:13;;;;;;;0.80;0.63;;;10.80;99.90;;;;;;5109853;28;20797;-75
2022/09/27 01:27:00;;;;;;;1.80;0.90;;;10.80;99.90;;;;;;5092206;28;20392;-75
2022/09/27 01:30:11;;;;;;;1.40;1.10;;;10.80;99.90;;;;;;5110172;28;20376;-75
2022/09/27 01:32:42;;;;;;;1.70;1.10;;;10.80;99.90;;;;;;5081273;28;20442;-74
2022/09/27 01:35:43;;;;;;;1.00;1.00;;;10.80;99.90;;;;;;5110487;28;21085;-75
2022/09/27 01:38:11;;;;;;;2.63;1.10;;;10.80;99.90;;;;;;5110620;28;20381;-75
2022/09/27 01:40:53;;;;;;;1.38;1.00;;;10.80;99.90;;;;;;5110589;28;20395;-75
2022/09/27 01:43:33;;;;;;;3.58;1.40;;;10.80;99.90;;;;;;5110324;28;20803;-74
2022/09/27 01:46:07;;;;;;;2.63;1.10;;;10.80;99.90;;;;;;5091994;28;20385;-74
2022/09/27 01:48:41;;;;;;;2.53;1.40;;;10.80;99.90;;;;;;5089971;28;20389;-74
2022/09/27 01:51:11;;;;;;;1.20;1.10;;;10.70;99.90;;;;;;5089898;28;20476;-73
2022/09/27 01:53:43;;;;;;;1.20;1.10;;;10.80;99.90;;;;;;5071677;28;20390;-74
2022/09/27 01:56:14;;;;;;;3.15;1.30;;;10.70;99.90;;;;;;5090020;28;20436;-74
2022/09/27 01:58:53;;;;;;;2.78;1.25;;;10.80;99.90;;;;;;5089812;28;20370;-74
2022/09/27 02:01:21;;;;;;;1.70;1.60;;;10.80;99.90;;;;;;5099043;28;20384;-74
2022/09/27 02:03:50;;;;;;;2.37;1.30;;;10.70;99.90;;;;;;5109470;28;20448;-74
2022/09/27 02:06:40;;;;;;;2.87;1.37;;;10.80;99.90;;;;;;5091722;28;20776;-73
2022/09/27 02:09:17;;;;;;;1.80;1.53;;;10.80;99.90;;;;;;5110024;28;20710;-74
2022/09/27 02:11:48;;;;;;;3.15;1.30;;;10.70;99.90;;;;;;5110070;28;20415;-74
2022/09/27 02:14:19;;;;;;;2.20;1.50;;;10.80;99.90;;;;;;5091504;28;20381;-74
2022/09/27 02:16:58;;;;;;;1.20;1.10;;;10.70;99.90;;;;;;5091506;28;20388;-73
2022/09/27 02:19:42;;;;;;;2.60;1.50;;;10.70;99.90;;;;;;5089690;28;20397;-74
2022/09/27 02:22:08;;;;;;;2.30;1.40;;;10.70;99.90;;;;;;5090844;28;20435;-74
2022/09/27 02:24:42;;;;;;;3.20;1.20;;;10.70;99.90;;;;;;5107476;28;20400;-74
2022/09/27 02:27:26;;;;;;;2.58;1.40;;;10.70;99.90;;;;;;5109935;28;20384;-74
2022/09/27 02:30:02;;;;;;;1.90;0.93;;;10.70;99.90;;;;;;5109895;28;20381;-74
2022/09/27 02:32:28;;;;;;;1.75;1.10;;;10.70;99.90;;;;;;5110935;22;20447;-74
2022/09/27 02:34:56;;;;;;;2.10;1.00;;;10.70;99.90;;;;;;5108232;28;20814;-74
2022/09/27 02:37:22;;;;;;;2.58;1.05;;;10.70;99.90;;;;;;5103153;28;20464;-73
2022/09/27 02:39:48;;;;;;;2.20;1.00;;;10.60;99.90;;;;;;5092666;28;20550;-74
2022/09/27 02:42:13;;;;;;;2.30;1.10;;;10.70;99.90;;;;;;5101121;28;20386;-74
2022/09/27 02:44:40;;;;;;;2.40;1.13;;;10.60;99.90;;;;;;5103580;28;20762;-74
2022/09/27 02:47:26;;;;;;;1.20;0.90;;;10.60;99.90;;;;;;5093768;28;20464;-75
2022/09/27 02:50:25;;;;;;;0.90;0.80;;;10.60;99.90;;;;;;5079059;28;20945;-74
2022/09/27 02:53:21;;;;;;;3.20;1.20;;;10.60;99.90;;;;;;5085265;28;20896;-73
2022/09/27 02:55:52;;;;;;;1.20;1.00;;;10.50;99.90;;;;;;5103613;28;20429;-73
2022/09/27 02:58:56;;;;;;;2.70;1.00;;;10.50;99.90;;;;;;5107793;28;20898;-74
2022/09/27 03:01:44;;;;;;;2.38;0.80;;;10.50;99.90;;;;;;5049389;28;20402;-73
2022/09/27 03:04:39;;;;;;;3.50;1.00;;;10.50;99.90;;;;;;5097646;28;20887;-74
2022/09/27 03:07:06;;;;;;;2.38;1.20;;;10.50;99.90;;;;;;5097675;28;20390;-73
2022/09/27 03:09:44;;;;;;;3.80;1.30;;;10.50;99.90;;;;;;5100048;28;20394;-74
2022/09/27 03:12:10;;;;;;;2.13;1.42;;;10.50;99.90;;;;;;5101824;28;20397;-73
2022/09/27 03:14:36;;;;;;;2.05;1.20;;;10.50;99.90;;;;;;5100243;28;20398;-74
2022/09/27 03:17:01;;;;;;;4.43;1.70;;;10.60;99.90;;;;;;5104268;28;20527;-73
2022/09/27 03:19:27;;;;;;;2.27;1.43;;;10.60;99.90;;;;;;5079133;28;20397;-74
2022/09/27 03:21:52;;;;;;;5.10;1.97;;;10.50;99.90;;;;;;5103732;28;20421;-74
2022/09/27 03:24:18;;;;;;;3.05;1.40;;;10.50;99.90;;;;;;5102262;28;20400;-74
2022/09/27 03:26:43;;;;;;;3.03;1.80;;;10.50;99.90;;;;;;5100202;28;20479;-74
2022/09/27 03:29:10;;;;;;;3.83;1.77;;;10.40;99.90;;;;;;5095379;28;20397;-75
2022/09/27 03:31:35;;;;;;;4.78;1.80;;;10.40;99.90;;;;;;5100652;28;20408;-74
2022/09/27 03:34:01;;;;;;;4.22;1.80;;;10.40;99.90;;;;;;5095074;28;20402;-75
2022/09/27 03:36:26;;;;;;;2.63;1.50;;;10.40;99.90;;;;;;5103101;28;20896;-74
2022/09/27 03:38:52;;;;;;;4.60;1.50;;;10.40;99.90;;;;;;5103704;28;20449;-74
2022/09/27 03:41:18;;;;;;;5.10;1.50;;;10.40;99.90;;;;;;5093105;28;20441;-75
2022/09/27 03:43:43;;;;;;;4.00;1.50;;;10.40;99.90;;;;;;5076276;28;20403;-74
2022/09/27 03:46:09;;;;;;;2.90;1.57;;;10.40;99.90;;;;;;5100269;28;20392;-74
2022/09/27 03:48:34;;;;;;;5.13;2.00;;;10.40;99.90;;;;;;5097379;28;20400;-74
2022/09/27 03:51:00;;;;;;;4.20;1.30;;;10.40;99.90;;;;;;5095874;28;20779;-74
2022/09/27 03:53:25;;;;;;;4.38;2.00;;;10.40;99.90;;;;;;5101664;28;20525;-74
2022/09/27 03:55:51;;;;;;;2.72;1.50;;;10.40;99.90;;;;;;5101525;28;20431;-75
2022/09/27 03:58:17;;;;;;;3.20;1.63;;;10.40;99.90;;;;;;5079127;28;20394;-75
2022/09/27 04:00:45;;;;;;;2.10;1.10;;;10.30;99.90;;;;;;5102996;28;20473;-75
2022/09/27 04:03:11;;;;;;;4.00;1.70;;;10.30;99.90;;;;;;5094845;28;20744;-74
2022/09/27 04:05:36;;;;;;;2.00;1.70;;;10.30;99.90;;;;;;5083025;28;20521;-78
2022/09/27 04:08:04;;;;;;;5.97;2.28;;;10.30;99.90;;;;;;5081692;28;20921;-75
2022/09/27 04:10:29;;;;;;;3.92;2.42;;;10.30;99.90;;;;;;5084470;28;20399;-76
2022/09/27 04:12:55;;;;;;;2.90;2.00;;;10.20;99.90;;;;;;5096101;28;20405;-76
2022/09/27 04:15:21;;;;;;;2.95;1.73;;;10.30;99.90;;;;;;5090034;28;20767;-75
2022/09/27 04:17:46;;;;;;;2.00;1.80;;;10.20;99.90;;;;;;5078917;28;20397;-75
2022/09/27 04:20:12;;;;;;;2.60;1.60;;;10.10;99.90;;;;;;5073498;28;20382;-76
2022/09/27 04:22:42;;;;;;;3.40;1.60;;;10.00;99.90;;;;;;5089386;28;20410;-76
2022/09/27 04:25:08;;;;;;;3.03;1.60;;;10.00;99.90;;;;;;5082438;28;20386;-76
2022/09/27 04:27:34;;;;;;;2.40;1.50;;;10.00;99.90;;;;;;5104764;28;20450;-76
2022/09/27 04:30:00;;;;;;;2.88;1.60;;;10.00;99.90;;;;;;5101226;28;20410;-76
2022/09/27 04:32:26;;;;;;;3.70;1.60;;;10.00;99.90;;;;;;5097795;28;20958;-76
2022/09/27 04:37:35;;;;;;;2.78;1.23;;;10.00;99.90;;;;;;5099217;28;20874;-76
2022/09/27 04:40:02;;;;;;;2.95;0.80;;;9.90;99.90;;;;;;5080917;28;20405;-76
2022/09/27 04:42:28;;;;;;;1.63;0.80;;;9.80;99.90;;;;;;5104098;28;20419;-77
2022/09/27 04:44:54;;;;;;;1.20;0.90;;;9.80;99.90;;;;;;5080089;28;20417;-77
2022/09/27 04:47:20;;;;;;;1.30;1.20;;;9.80;99.90;;;;;;5096776;28;20393;-75
2022/09/27 04:49:46;;;;;;;1.23;1.13;;;9.80;99.90;;;;;;5103354;28;20383;-76
2022/09/27 04:52:13;;;;;;;1.90;1.20;;;9.80;99.90;;;;;;5106504;28;20454;-75
2022/09/27 04:54:39;;;;;;;3.60;1.60;;;9.80;99.90;;;;;;5099648;28;20386;-76
2022/09/27 04:57:04;;;;;;;4.78;1.90;;;9.80;99.90;;;;;;5097396;28;20869;-76
2022/09/27 04:59:30;;;;;;;3.77;1.97;;;9.90;99.90;;;;;;5098331;28;20441;-75
2022/09/27 05:01:58;;;;;;;2.57;2.10;;;9.90;99.90;;;;;;5097797;28;20799;-75
2022/09/27 05:04:24;;;;;;;3.30;2.15;;;10.00;99.90;;;;;;5079251;28;20459;-76
2022/09/27 05:06:49;;;;;;;4.28;2.10;;;10.00;99.90;;;;;;5088608;28;20443;-76
2022/09/27 05:09:15;;;;;;;3.72;2.05;;;9.90;99.90;;;;;;5085931;28;20418;-75
2022/09/27 05:11:40;;;;;;;3.10;2.03;;;10.00;99.90;;;;;;5077450;28;20749;-76
2022/09/27 05:14:06;;;;;;;3.33;2.30;;;10.00;99.90;;;;;;5090532;28;20382;-75
2022/09/27 05:16:32;;;;;;;6.50;2.00;;;10.00;99.90;;;;;;5064219;28;20767;-76
2022/09/27 05:18:58;;;;;;;3.05;1.90;;;10.00;99.90;;;;;;5088857;28;20584;-77
2022/09/27 05:21:23;;;;;;;2.13;1.80;;;10.00;99.90;;;;;;5065420;28;20411;-77
2022/09/27 05:23:49;;;;;;;5.50;2.20;;;10.00;99.90;;;;;;5085531;28;20406;-75
2022/09/27 05:26:14;;;;;;;2.70;2.10;;;10.00;99.90;;;;;;5082742;28;20422;-75
2022/09/27 05:28:43;;;;;;;3.60;1.70;;;10.00;99.90;;;;;;5069800;28;20394;-76
2022/09/27 05:31:10;;;;;;;2.90;1.70;;;10.00;99.90;;;;;;5086696;28;20429;-76
2022/09/27 05:33:35;;;;;;;2.40;1.30;;;9.90;99.90;;;;;;5089980;28;20439;-75
2022/09/27 05:36:01;;;;;;;4.30;1.30;;;9.80;99.90;;;;;;5083014;28;20924;-75
2022/09/27 05:38:27;;;;;;;2.10;1.20;;;9.80;99.90;;;;;;5085439;28;20443;-76
2022/09/27 05:40:52;;;;;;;2.70;1.20;;;9.80;99.90;;;;;;5061557;28;20402;-76
2022/09/27 05:43:18;;;;;;;2.22;1.40;;;9.80;99.90;;;;;;5087534;28;20461;-76
2022/09/27 05:45:44;;;;;;;4.73;1.37;;;9.80;99.90;;;;;;5084312;28;20908;-76
2022/09/27 05:48:11;;;;;;;1.47;1.00;;;9.80;99.90;;;;;;5081575;28;20480;-76
2022/09/27 05:50:37;;;;;;;2.47;1.20;;;9.70;99.90;;;;;;5094871;28;20392;-76
2022/09/27 05:53:03;;;;;;;4.65;1.77;;;9.70;99.90;;;;;;5072686;28;21081;-76
2022/09/27 05:55:29;;;;;;;3.20;1.25;;;9.70;99.90;;;;;;5091216;28;20524;-76
2022/09/27 05:57:57;;;;;;;3.10;1.80;;;9.70;99.90;;;;;;5070266;28;20876;-76
2022/09/27 06:00:24;;;;;;;2.65;1.30;;;9.70;99.90;;;;;;5060460;28;20505;-76
2022/09/27 06:02:59;;;;;;;2.00;1.30;;;9.70;99.90;;;;;;5074244;28;20391;-75
2022/09/27 06:05:26;;;;;;;2.30;1.20;;;9.70;99.90;;;;;;5084463;28;20406;-76
2022/09/27 06:07:58;;;;;;;2.97;1.00;;;9.60;99.90;;;;;;5068324;28;20391;-76
2022/09/27 06:10:23;;;;;;;2.58;1.20;;;9.70;99.90;;;;;;5085606;28;20957;-75
2022/09/27 06:12:49;;;;;;;2.15;1.20;;;9.60;99.90;;;;;;5080236;28;20418;-76
2022/09/27 06:15:15;;;;;;;1.27;0.90;;;9.60;99.90;;;;;;5091493;28;20378;-76
2022/09/27 06:17:40;;;;;;;2.00;1.40;;;9.70;99.90;;;;;;5091249;28;20397;-76
2022/09/27 06:20:07;;;;;;;2.78;1.13;;;9.60;99.90;;;;;;5073254;28;20397;-76
2022/09/27 06:22:33;;;;;;;3.10;1.10;;;9.60;99.90;;;;;;5103643;28;20392;-76
2022/09/27 06:24:59;;;;;;;2.03;1.42;;;9.60;99.90;;;;;;5102790;28;20797;-76
2022/09/27 06:27:25;;;;;;;2.55;1.70;;;9.60;99.90;;;;;;5100679;28;20415;-75
2022/09/27 06:29:51;;;;;;;3.30;1.55;;;9.60;99.90;;;;;;5082005;28;20407;-76
2022/09/27 06:32:16;;;;;;;3.80;2.13;;;9.60;99.90;;;;;;5086596;28;20411;-76
2022/09/27 06:34:42;;;;;;;1.60;1.50;;;9.60;99.90;;;;;;5094941;28;20395;-76
2022/09/27 06:37:07;;;;;;;3.00;1.67;;;9.70;99.90;;;;;;5102572;28;20382;-76
2022/09/27 06:39:33;;;;;;;3.72;1.58;;;9.70;99.90;;;;;;5095928;28;20546;-76
2022/09/27 06:41:59;;;;;;;1.40;1.30;;;9.70;99.90;;;;;;5070735;28;20396;-76
2022/09/27 06:44:25;;;;;;;1.83;1.00;;;9.70;99.90;;;;;;5085349;28;20918;-76
2022/09/27 06:46:51;;;;;;;2.20;1.30;;;9.70;99.90;;;;;;5093496;28;20393;-76
2022/09/27 06:49:18;;;;;;;2.40;1.53;;;9.70;99.90;;;;;;5092017;28;20386;-75
2022/09/27 06:51:44;;;;;;;2.57;1.30;;;9.80;99.90;;;;;;5069935;28;20789;-76
2022/09/27 06:54:10;;;;;;;1.80;1.70;;;9.80;99.90;;;;;;5074796;28;20408;-76
2022/09/27 06:56:35;;;;;;;1.90;1.30;;;9.80;99.90;;;;;;5098334;28;20396;-76
2022/09/27 07:01:45;;;;;;;2.00;1.20;;;9.80;99.90;;;;;;5091463;28;20404;-76
2022/09/27 07:04:11;;;;;;;2.33;1.60;;;9.80;99.90;;;;;;5069810;28;20409;-76
2022/09/27 07:06:36;;;;;;;3.22;1.20;;;9.80;99.90;;;;;;5078403;28;20420;-76
2022/09/27 07:09:02;;;;;;;0.98;0.88;;;9.80;99.90;;;;;;5092854;28;20483;-76
2022/09/27 07:11:28;;;;;;;1.58;0.90;;;9.80;99.90;;;;;;5093723;28;20405;-76
2022/09/27 07:13:55;;;;;;;1.17;0.80;;;9.90;99.90;;;;;;5066021;28;20383;-76
2022/09/27 07:16:21;;;;;;;1.67;0.90;;;10.00;99.90;;;;;;5081843;28;20455;-76
2022/09/27 07:18:48;;;;;;;1.83;1.00;;;10.00;99.90;;;;;;5091053;28;20400;-76
2022/09/27 07:21:15;;;;;;;1.80;0.90;;;10.00;99.90;;;;;;5099072;28;20415;-74
2022/09/27 07:23:41;;;;;;;1.00;0.70;;;9.90;99.90;;;;;;5094654;28;20498;-76
2022/09/27 07:26:07;;;;;;;1.50;0.73;;;10.00;99.90;;;;;;5077463;28;20395;-75
2022/09/27 07:28:33;;;;;;;1.40;0.90;;;10.00;99.90;;;;;;5094161;28;20403;-75
2022/09/27 07:31:01;;;;;;;1.55;1.00;;;10.00;99.90;;;;;;5073002;28;20903;-75
2022/09/27 07:33:26;;;;;;;0.80;0.80;;;9.90;99.90;;;;;;5102658;28;20432;-76
2022/09/27 07:35:52;;;;;;;2.30;0.87;;;9.90;99.90;;;;;;5099547;28;20536;-76
2022/09/27 07:38:18;;;;;;;1.30;1.08;;;10.00;99.90;;;;;;5058345;28;20399;-76
2022/09/27 07:40:43;;;;;;;2.80;1.23;;;10.00;99.90;;;;;;5093374;28;20497;-76
2022/09/27 07:43:09;;;;;;;1.00;0.70;;;10.10;99.90;;;;;;5073108;28;20409;-76
2022/09/27 07:45:35;;;;;;;1.65;1.25;;;10.20;99.90;;;;;;5074615;28;20381;-77
2022/09/27 07:48:04;;;;;;;2.33;1.15;;;10.10;99.90;;;;;;5075955;28;20447;-76
2022/09/27 07:50:30;;;;;;;2.60;1.50;;;10.20;99.90;;;;;;5095669;28;20388;-76
2022/09/27 07:52:56;;;;;;;2.53;1.17;;;10.10;99.90;;;;;;5077565;28;20401;-77
2022/09/27 07:55:23;;;;;;;1.75;1.17;;;10.10;99.90;;;;;;5098524;28;20394;-77
2022/09/27 07:57:49;;;;;;;2.55;1.40;;;10.10;99.90;;;;;;5093375;28;20396;-77
2022/09/27 08:00:17;;;;;;;1.23;1.13;;;10.20;99.90;;;;;;5105358;28;20394;-77
2022/09/27 08:02:43;;;;;;;2.88;1.40;;;10.30;99.90;;;;;;5108534;28;20399;-77
2022/09/27 08:05:10;;;;;;;3.55;1.70;;;10.20;99.90;;;;;;5095478;28;20392;-77
2022/09/27 08:07:37;;;;;;;2.90;1.30;;;10.30;99.90;;;;;;5093469;28;20499;-76
2022/09/27 08:10:03;;;;;;;1.85;1.50;;;10.30;99.90;;;;;;5091530;28;20370;-76
2022/09/27 08:12:29;;;;;;;3.38;1.40;;;10.30;99.90;;;;;;5090594;28;20402;-77
2022/09/27 08:14:57;;;;;;;2.63;1.40;;;10.30;99.90;;;;;;5088407;28;20397;-75
2022/09/27 08:17:22;;;;;;;2.00;1.60;;;10.30;99.90;;;;;;5073669;28;20913;-76
2022/09/27 08:19:48;;;;;;;1.90;1.50;;;10.40;99.90;;;;;;5087647;28;20473;-77
2022/09/27 08:22:15;;;;;;;3.40;1.70;;;10.30;99.90;;;;;;5091679;28;20764;-75
2022/09/27 08:24:41;;;;;;;3.05;1.80;;;10.30;99.90;;;;;;5091674;28;20382;-78
2022/09/27 08:27:07;;;;;;;3.13;1.75;;;10.30;99.90;;;;;;5092318;28;20389;-77
2022/09/27 08:29:33;;;;;;;3.13;1.90;;;10.30;99.90;;;;;;5074256;28;20390;-76
2022/09/27 08:31:59;;;;;;;2.17;1.60;;;10.30;99.90;;;;;;5091675;28;20410;-77
2022/09/27 08:34:27;;;;;;;5.38;1.90;;;10.30;99.90;;;;;;5091906;28;21119;-77
2022/09/27 08:36:54;;;;;;;4.05;2.20;;;10.30;99.90;;;;;;5091277;28;20397;-76
2022/09/27 08:39:20;;;;;;;5.82;2.30;;;10.40;99.90;;;;;;5091753;28;20373;-76
2022/09/27 08:41:53;;;;;;;2.60;1.80;;;10.30;99.90;;;;;;5094795;28;20382;-78
2022/09/27 08:44:54;;;;;;;3.53;2.60;;;10.10;99.90;;;;;;5098400;28;20374;-77
2022/09/27 08:47:42;;;;;;;4.65;2.40;;;10.00;99.90;;;;;;5101995;28;20393;-78
2022/09/27 08:50:08;;;;;;;5.45;3.00;;;10.00;99.90;;;;;;5093333;28;20390;-78
2022/09/27 08:52:44;;;;;;;50.92;29.98;;;10.00;99.90;;;;;;5095349;28;20416;-79
2022/09/27 08:55:23;;;;;;;2.88;2.03;;;9.90;99.90;;;;;;5078228;28;20381;-78
2022/09/27 08:57:55;;;;;;;5.07;2.50;;;9.90;99.90;;;;;;5077711;28;20385;-78
2022/09/27 09:00:20;;;;;;;5.45;2.40;;;9.90;99.90;;;;;;5094391;28;20382;-78
2022/09/27 09:02:47;;;;;;;5.70;3.00;;;10.00;99.90;;;;;;5090924;28;20413;-78
2022/09/27 09:05:33;;;;;;;2.55;1.67;;;10.00;99.90;;;;;;5096032;28;20397;-78
2022/09/27 09:08:38;;;;;;;3.30;2.30;;;9.90;99.90;;;;;;5076547;28;20464;-77
2022/09/27 09:14:44;;;;;;;4.57;2.13;;;9.80;99.90;;;;;;5091824;28;20366;-77
2022/09/27 09:17:57;;;;;;;3.28;2.03;;;9.90;99.90;;;;;;5092192;28;20450;-77
2022/09/27 09:20:55;;;;;;;2.58;2.00;;;10.00;99.90;;;;;;5028944;28;20482;-77
2022/09/27 09:23:38;;;;;;;3.88;2.20;;;10.10;99.90;;;;;;5034281;28;20419;-76
2022/09/27 09:26:11;;;;;;;4.20;2.38;;;10.20;99.90;;;;;;5078693;28;20389;-77
2022/09/27 09:28:51;;;;;;;6.15;2.63;;;10.20;99.90;;;;;;5085143;28;20389;-78
2022/09/27 09:31:50;;;;;;;4.68;2.42;;;10.40;99.90;;;;;;5091021;28;20401;-76
2022/09/27 09:34:24;;;;;;;3.92;2.17;;;10.40;99.90;;;;;;5094449;28;20459;-77
2022/09/27 09:37:09;;;;;;;3.28;2.35;;;10.50;99.90;;;;;;5092518;28;20399;-77
2022/09/27 09:39:49;;;;;;;5.60;2.55;;;10.50;99.90;;;;;;5072683;28;20399;-79
2022/09/27 09:42:38;;;;;;;3.50;2.40;;;10.60;99.90;;;;;;5092015;28;20398;-79
2022/09/27 09:45:18;;;;;;;5.32;3.17;;;10.50;99.90;;;;;;5096902;28;20380;-79
2022/09/27 09:48:11;;;;;;;4.55;2.40;;;10.50;99.90;;;;;;5084259;28;20523;-76
2022/09/27 09:50:46;;;;;;;4.00;2.53;;;10.30;99.90;;;;;;5079342;28;20736;-76
2022/09/27 09:53:48;;;;;;;3.70;2.53;;;10.30;99.90;;;;;;5084518;28;20404;-76
2022/09/27 09:56:31;;;;;;;5.88;2.72;;;10.30;99.90;;;;;;5056063;28;20477;-78
2022/09/27 09:59:03;;;;;;;8.65;2.75;;;10.40;99.90;;;;;;5062658;28;20441;-76
2022/09/27 10:01:41;;;;;;;4.97;3.13;;;10.50;99.90;;;;;;5080708;28;20386;-76
2022/09/27 10:04:15;;;;;;;3.33;2.10;;;10.70;99.90;;;;;;5080667;28;20424;-77
2022/09/27 10:06:41;;;;;;;3.58;2.20;;;10.70;99.90;;;;;;5060555;28;20893;-78
2022/09/27 10:09:11;;;;;;;5.30;2.10;;;10.90;99.90;;;;;;5080539;28;20390;-75
2022/09/27 10:11:41;;;;;;;3.37;1.90;;;11.00;99.90;;;;;;5079397;28;20775;-75
2022/09/27 10:14:19;;;;;;;2.75;1.40;;;10.90;99.90;;;;;;5080682;28;20462;-75
2022/09/27 10:16:53;;;;;;;2.47;1.27;;;10.80;99.90;;;;;;5085784;28;20404;-75
2022/09/27 10:19:25;;;;;;;2.30;1.30;;;10.90;99.90;;;;;;5089469;28;20393;-74
2022/09/27 10:21:52;;;;;;;3.95;1.20;;;11.00;99.90;;;;;;5070013;28;20814;-77
2022/09/27 10:24:18;;;;;;;3.15;1.10;;;11.10;99.90;;;;;;5086767;28;20386;-74
2022/09/27 10:26:46;;;;;;;2.40;1.00;;;11.10;99.90;;;;;;5081229;28;20385;-76
2022/09/27 10:29:31;;;;;;;3.50;1.10;;;11.10;99.90;;;;;;5060616;28;20766;-74
2022/09/27 10:31:58;;;;;;;3.03;1.10;;;10.80;99.90;;;;;;5088949;28;20432;-74
2022/09/27 10:34:33;;;;;;;1.20;0.80;;;10.80;99.90;;;;;;5089356;28;20708;-74
2022/09/27 10:37:04;;;;;;;1.00;0.90;;;10.90;99.90;;;;;;5089837;28;20869;-75
2022/09/27 10:39:30;;;;;;;1.40;1.00;;;10.90;99.90;;;;;;5089838;28;20386;-75
2022/09/27 10:41:56;;;;;;;1.55;0.90;;;10.90;99.90;;;;;;5089615;28;20382;-73
2022/09/27 10:44:31;;;;;;;3.92;1.35;;;11.00;99.90;;;;;;5089206;28;20917;-74
2022/09/27 10:47:06;;;;;;;2.83;1.27;;;11.10;99.90;;;;;;5081332;28;20767;-73
2022/09/27 10:49:37;;;;;;;1.00;0.90;;;11.10;99.90;;;;;;5084199;28;20377;-74
2022/09/27 10:52:28;;;;;;;2.10;1.00;;;11.10;99.90;;;;;;5084471;28;20398;-74
2022/09/27 10:54:58;;;;;;;1.48;0.88;;;11.10;99.90;;;;;;5085665;28;20443;-75
2022/09/27 10:57:26;;;;;;;2.20;0.70;;;11.00;99.90;;;;;;5089916;28;20451;-74
2022/09/27 10:59:56;;;;;;;1.48;0.90;;;11.00;99.90;;;;;;5089578;28;20394;-74
2022/09/27 11:02:29;;;;;;;2.53;1.10;;;11.00;99.90;;;;;;5092463;28;20386;-74
2022/09/27 11:05:22;;;;;;;2.10;1.10;;;11.10;99.90;;;;;;5093347;28;20370;-74
2022/09/27 11:07:51;;;;;;;1.67;1.30;;;11.20;99.90;;;;;;5075144;28;20484;-73
2022/09/27 11:10:27;;;;;;;1.95;1.10;;;11.20;99.90;;;;;;5090881;28;20499;-73
2022/09/27 11:13:15;;;;;;;2.97;1.00;;;11.10;99.90;;;;;;5093470;28;20478;-75
2022/09/27 11:16:02;;;;;;;3.70;1.00;;;11.20;99.90;;;;;;5094535;28;20420;-74
2022/09/27 11:18:59;;;;;;;2.50;1.08;;;11.20;99.90;;;;;;5103121;28;20395;-74
2022/09/27 11:21:33;;;;;;;4.55;1.40;;;11.30;99.90;;;;;;5070003;28;20402;-73
2022/09/27 11:24:06;;;;;;;1.75;1.00;;;11.40;99.90;;;;;;5084115;28;20532;-74
2022/09/27 11:27:17;;;;;;;2.13;1.08;;;11.50;99.90;;;;;;5086209;28;20405;-74
2022/09/27 11:30:15;;;;;;;4.07;1.20;;;11.50;99.90;;;;;;5083746;28;20497;-74
2022/09/27 11:33:04;;;;;;;2.60;1.00;;;11.60;99.90;;;;;;5091028;28;20408;-75
2022/09/27 11:36:01;;;;;;;1.00;0.88;;;11.70;99.90;;;;;;5100666;28;20516;-74
2022/09/27 11:38:32;;;;;;;2.30;1.20;;;11.80;99.90;;;;;;5101697;28;20895;-73
2022/09/27 11:41:39;;;;;;;2.40;1.20;;;11.60;99.90;;;;;;5099705;28;20448;-74
2022/09/27 11:44:22;;;;;;;1.88;1.20;;;11.50;99.90;;;;;;5089943;28;20409;-75
2022/09/27 11:47:21;;;;;;;1.60;1.10;;;11.40;99.90;;;;;;5091776;28;20441;-75
2022/09/27 11:50:28;;;;;;;3.90;1.40;;;11.40;99.90;;;;;;5102493;28;20400;-74
2022/09/27 11:53:15;;;;;;;2.40;1.23;;;11.30;99.90;;;;;;5099937;28;20761;-74
2022/09/27 11:55:45;;;;;;;3.78;1.50;;;11.30;99.90;;;;;;5098478;28;20444;-74
2022/09/27 11:58:25;;;;;;;2.15;1.25;;;11.30;99.90;;;;;;5092288;28;20401;-75
2022/09/27 12:01:19;;;;;;;4.20;1.50;;;11.30;99.90;;;;;;5099715;28;20397;-74
2022/09/27 12:04:14;;;;;;;1.92;1.40;;;11.30;99.90;;;;;;5072367;28;20817;-72
2022/09/27 12:06:56;;;;;;;2.60;1.30;;;11.60;99.90;;;;;;5072068;28;20388;-72
2022/09/27 12:09:29;;;;;;;4.32;1.50;;;12.10;99.90;;;;;;5086085;28;20417;-73
2022/09/27 12:12:08;;;;;;;1.98;1.10;;;12.30;99.90;;;;;;5083663;28;20413;-73
2022/09/27 12:14:37;;;;;;;1.30;1.20;;;12.60;99.90;;;;;;5091494;28;20443;-73
2022/09/27 12:17:33;;;;;;;2.65;1.20;;;13.00;99.90;;;;;;5090438;28;20459;-73
2022/09/27 12:20:05;;;;;;;2.35;1.30;;;13.20;99.90;;;;;;5052040;28;20399;-72
2022/09/27 12:22:40;;;;;;;1.20;1.10;;;12.90;99.90;;;;;;5106547;22;20835;-71
2022/09/27 12:25:11;;;;;;;2.45;1.50;;;12.40;99.90;;;;;;5111850;28;20919;-72
2022/09/27 12:27:44;;;;;;;4.30;1.40;;;12.20;99.90;;;;;;5119715;27;20416;-72
2022/09/27 12:30:13;;;;;;;3.30;1.60;;;12.30;99.90;;;;;;5102097;27;20390;-72
2022/09/27 12:33:07;;;;;;;2.80;1.90;;;12.20;99.90;;;;;;5080610;28;20413;-72
2022/09/27 12:35:44;;;;;;;1.73;1.38;;;12.20;99.90;;;;;;5089644;28;20764;-74
2022/09/27 12:38:26;;;;;;;4.30;1.50;;;12.30;99.90;;;;;;5110526;28;20377;-74
2022/09/27 12:41:11;;;;;;;2.30;1.17;;;12.40;99.90;;;;;;5092734;28;20390;-73
2022/09/27 12:43:43;;;;;;;1.25;0.90;;;12.50;99.90;;;;;;5091539;28;20399;-73
2022/09/27 12:46:36;;;;;;;1.60;0.95;;;12.50;99.90;;;;;;5091405;28;20370;-72
2022/09/27 12:49:20;;;;;;;3.90;1.20;;;12.50;99.90;;;;;;5091156;28;20390;-73
2022/09/27 12:52:01;;;;;;;2.03;1.30;;;12.50;99.90;;;;;;5091297;28;20409;-73
2022/09/27 12:54:41;;;;;;;2.45;0.90;;;12.40;99.90;;;;;;5090800;28;20370;-74
2022/09/27 12:57:33;;;;;;;2.20;1.10;;;11.70;99.90;;;;;;5072851;28;20768;-75
2022/09/27 13:00:41;;;;;;;1.75;1.10;;;11.40;99.90;;;;;;5073090;28;20712;-73
2022/09/27 13:03:28;;;;;;;3.00;1.40;;;11.40;99.90;;;;;;5019210;28;20561;-74
2022/09/27 13:06:07;;;;;;;3.20;1.30;;;11.00;99.90;;;;;;5091678;28;20453;-75
2022/09/27 13:09:14;;;;;;;3.50;1.38;;;10.80;99.90;;;;;;5072744;28;20451;-76
2022/09/27 13:11:47;;;;;;;2.10;1.10;;;10.80;99.90;;;;;;5059852;28;20768;-77
2022/09/27 13:14:22;;;;;;;3.42;1.25;;;10.80;99.90;;;;;;5071407;28;20400;-76
2022/09/27 13:16:48;;;;;;;2.15;1.40;;;10.90;99.90;;;;;;5090839;28;20752;-76
2022/09/27 13:19:38;;;;;;;1.95;1.23;;;10.90;99.90;;;;;;5090785;28;20378;-77
2022/09/27 13:22:07;;;;;;;2.85;1.50;;;11.00;99.90;;;;;;5081756;28;20403;-76
2022/09/27 13:24:37;;;;;;;4.20;1.57;;;11.30;99.90;;;;;;5058542;28;20878;-77
2022/09/27 13:27:28;;;;;;;1.73;1.17;;;11.50;99.90;;;;;;5069955;28;21147;-73